createdAt,value
2023-03-11T00:00:27.381Z,30.70
2023-03-11T00:03:16.560Z,26.50
2023-03-11T00:05:46.318Z,22.30
2023-03-11T00:08:17.096Z,29.30
2023-03-11T00:10:46.227Z,28.30
2023-03-11T00:13:15.721Z,51.10
2023-03-11T00:15:45.394Z,48.80
2023-03-11T00:18:12.702Z,45.40
2023-03-11T00:20:43.130Z,41.80
2023-03-11T00:23:13.303Z,38.20
2023-03-11T00:25:42.784Z,41.80
2023-03-11T00:28:11.261Z,40.00
2023-03-11T00:30:39.707Z,42.40
2023-03-11T00:33:08.149Z,168.70
2023-03-11T00:35:35.929Z,30.30
2023-03-11T00:38:07.315Z,21.40
2023-03-11T00:40:35.842Z,21.10
2023-03-11T00:43:03.943Z,23.80
2023-03-11T00:45:32.204Z,22.70
2023-03-11T00:47:59.312Z,31.10
2023-03-11T00:50:29.970Z,26.90
2023-03-11T00:52:58.071Z,27.60
2023-03-11T00:55:31.807Z,16.10
2023-03-11T00:58:02.919Z,15.60
2023-03-11T01:00:37.470Z,16.30
2023-03-11T01:03:04.933Z,19.40
2023-03-11T01:05:33.684Z,19.40
2023-03-11T01:08:03.063Z,21.20
2023-03-11T01:10:32.447Z,23.40
2023-03-11T01:12:59.881Z,20.40
2023-03-11T01:15:33.196Z,16.10
2023-03-11T01:18:01.146Z,17.30
2023-03-11T01:20:29.406Z,14.80
2023-03-11T01:22:56.761Z,15.30
2023-03-11T01:25:25.186Z,15.70
2023-03-11T01:27:52.527Z,18.80
2023-03-11T01:30:22.885Z,24.10
2023-03-11T01:32:52.111Z,16.50
2023-03-11T01:35:21.500Z,16.30
2023-03-11T01:37:48.792Z,16.30
2023-03-11T01:40:25.568Z,15.30
2023-03-11T01:42:52.999Z,15.30
2023-03-11T01:45:29.266Z,14.10
2023-03-11T01:47:56.675Z,13.70
2023-03-11T01:50:25.664Z,15.40
2023-03-11T01:52:53.888Z,16.10
2023-03-11T01:55:20.980Z,82.00
2023-03-11T01:57:50.166Z,36.00
2023-03-11T02:00:17.623Z,16.30
2023-03-11T02:02:53.955Z,15.60
2023-03-11T02:05:23.105Z,15.40
2023-03-11T02:07:52.817Z,14.30
2023-03-11T02:10:21.278Z,12.90
2023-03-11T02:12:50.831Z,13.30
2023-03-11T02:15:26.925Z,14.40
2023-03-11T02:17:56.480Z,14.30
2023-03-11T02:20:43.212Z,40.70
2023-03-11T02:23:14.370Z,27.40
2023-03-11T02:25:43.118Z,23.50
2023-03-11T02:28:14.293Z,20.10
2023-03-11T02:30:43.415Z,20.60
2023-03-11T02:33:13.407Z,21.10
2023-03-11T02:35:41.648Z,20.80
2023-03-11T02:38:09.765Z,20.10
2023-03-11T02:40:52.013Z,20.90
2023-03-11T02:43:27.787Z,23.00
2023-03-11T02:45:56.711Z,24.60
2023-03-11T02:48:24.747Z,25.70
2023-03-11T02:50:52.490Z,27.20
2023-03-11T02:53:20.023Z,27.30
2023-03-11T02:55:47.457Z,29.50
2023-03-11T02:58:14.672Z,29.30
2023-03-11T03:00:41.986Z,30.00
2023-03-11T03:03:10.730Z,28.20
2023-03-11T03:05:38.780Z,28.90
2023-03-11T03:08:05.999Z,33.50
2023-03-11T03:10:33.477Z,28.10
2023-03-11T03:13:00.731Z,25.60
2023-03-11T03:15:28.192Z,25.80
2023-03-11T03:17:55.472Z,26.20
2023-03-11T03:20:22.925Z,25.80
2023-03-11T03:22:53.253Z,24.20
2023-03-11T03:25:22.747Z,26.10
2023-03-11T03:27:50.818Z,23.80
2023-03-11T03:30:18.932Z,25.30
2023-03-11T03:32:46.165Z,26.70
2023-03-11T03:35:16.044Z,23.30
2023-03-11T03:38:12.822Z,21.50
2023-03-11T03:40:45.585Z,23.30
2023-03-11T03:43:13.106Z,20.90
2023-03-11T03:45:40.797Z,21.20
2023-03-11T03:48:08.235Z,20.40
2023-03-11T03:50:40.169Z,21.40
2023-03-11T03:53:07.629Z,19.30
2023-03-11T03:55:34.928Z,19.90
2023-03-11T03:58:02.209Z,18.60
2023-03-11T04:00:32.793Z,16.10
2023-03-11T04:03:00.567Z,16.50
2023-03-11T04:05:34.363Z,16.20
2023-03-11T04:08:01.936Z,14.40
2023-03-11T04:10:29.086Z,13.80
2023-03-11T04:12:56.356Z,14.70
2023-03-11T04:15:23.661Z,16.20
2023-03-11T04:17:50.950Z,14.60
2023-03-11T04:20:18.907Z,13.20
2023-03-11T04:22:47.568Z,15.50
2023-03-11T04:25:15.308Z,27.50
2023-03-11T04:27:46.099Z,17.80
2023-03-11T04:30:13.839Z,22.90
2023-03-11T04:32:42.258Z,33.10
2023-03-11T04:35:10.149Z,26.70
2023-03-11T04:37:37.685Z,18.00
2023-03-11T04:40:07.033Z,13.50
2023-03-11T04:42:34.461Z,14.60
2023-03-11T04:45:02.045Z,17.60
2023-03-11T04:47:30.025Z,20.60
2023-03-11T04:49:57.252Z,13.30
2023-03-11T04:52:24.961Z,10.50
2023-03-11T04:54:52.475Z,10.60
2023-03-11T04:57:20.263Z,11.10
2023-03-11T04:59:47.956Z,12.40
2023-03-11T05:02:15.432Z,12.90
2023-03-11T05:04:49.114Z,13.90
2023-03-11T05:07:16.673Z,12.10
2023-03-11T05:09:44.505Z,12.80
2023-03-11T05:12:12.576Z,10.40
2023-03-11T05:14:40.980Z,22.80
2023-03-11T05:17:10.165Z,22.50
2023-03-11T05:19:37.351Z,32.90
2023-03-11T05:22:09.407Z,17.60
2023-03-11T05:24:36.915Z,10.40
2023-03-11T05:27:05.269Z,7.20
2023-03-11T05:29:33.493Z,5.50
2023-03-11T05:32:00.938Z,6.20
2023-03-11T05:34:28.227Z,5.20
2023-03-11T05:36:55.896Z,7.90
2023-03-11T05:39:23.433Z,6.40
2023-03-11T05:41:51.106Z,6.20
2023-03-11T05:44:18.477Z,4.30
2023-03-11T05:46:45.716Z,4.80
2023-03-11T05:49:13.015Z,6.80
2023-03-11T05:51:40.576Z,37.40
2023-03-11T05:54:15.260Z,24.10
2023-03-11T05:56:45.751Z,17.30
2023-03-11T05:59:16.558Z,27.70
2023-03-11T06:01:45.775Z,14.30
2023-03-11T06:04:13.500Z,15.30
2023-03-11T06:06:41.839Z,11.50
2023-03-11T06:09:14.245Z,8.40
2023-03-11T06:11:42.402Z,10.60
2023-03-11T06:14:14.601Z,11.60
2023-03-11T06:16:42.638Z,13.10
2023-03-11T06:19:10.406Z,17.60
2023-03-11T06:21:40.834Z,22.00
2023-03-11T06:24:08.556Z,11.60
2023-03-11T06:26:35.670Z,10.50
2023-03-11T06:29:02.926Z,12.30
2023-03-11T06:31:30.591Z,10.00
2023-03-11T06:34:04.240Z,12.90
2023-03-11T06:36:31.565Z,10.70
2023-03-11T06:38:59.179Z,14.00
2023-03-11T06:41:26.485Z,39.20
2023-03-11T06:43:54.129Z,16.00
2023-03-11T06:46:23.149Z,15.80
2023-03-11T06:48:54.746Z,8.70
2023-03-11T06:51:22.822Z,10.90
2023-03-11T06:53:51.987Z,8.90
2023-03-11T06:56:22.492Z,7.30
2023-03-11T06:58:54.040Z,6.80
2023-03-11T07:01:24.812Z,5.30
2023-03-11T07:03:53.424Z,6.20
2023-03-11T07:06:23.561Z,10.90
2023-03-11T07:08:53.224Z,15.50
2023-03-11T07:11:23.176Z,8.30
2023-03-11T07:13:52.118Z,7.40
2023-03-11T07:16:22.335Z,21.30
2023-03-11T07:18:51.704Z,18.00
2023-03-11T07:21:21.759Z,4.90
2023-03-11T07:23:53.230Z,6.30
2023-03-11T07:26:21.126Z,5.20
2023-03-11T07:28:49.497Z,7.00
2023-03-11T07:31:19.857Z,6.60
2023-03-11T07:33:47.592Z,11.10
2023-03-11T07:36:20.007Z,9.90
2023-03-11T07:38:48.087Z,7.60
2023-03-11T07:41:16.089Z,12.00
2023-03-11T07:43:43.872Z,33.00
2023-03-11T07:46:17.610Z,24.70
2023-03-11T07:48:45.896Z,23.00
2023-03-11T07:51:19.456Z,15.70
2023-03-11T07:53:47.191Z,10.00
2023-03-11T07:56:16.098Z,9.10
2023-03-11T07:58:45.707Z,7.40
2023-03-11T08:01:16.429Z,9.20
2023-03-11T08:03:46.310Z,24.00
2023-03-11T08:06:19.927Z,19.30
2023-03-11T08:08:48.358Z,12.00
2023-03-11T08:11:16.713Z,17.90
2023-03-11T08:13:45.341Z,9.30
2023-03-11T08:16:15.848Z,10.00
2023-03-11T08:18:43.615Z,9.60
2023-03-11T08:21:14.440Z,10.30
2023-03-11T08:23:43.235Z,14.10
2023-03-11T08:26:14.742Z,20.50
2023-03-11T08:28:42.180Z,21.10
2023-03-11T08:31:17.046Z,15.80
2023-03-11T08:33:46.633Z,18.30
2023-03-11T08:36:13.946Z,12.70
2023-03-11T08:38:41.124Z,12.40
2023-03-11T08:41:08.523Z,10.80
2023-03-11T08:43:36.134Z,11.90
2023-03-11T08:46:06.996Z,13.00
2023-03-11T08:48:36.356Z,18.90
2023-03-11T08:51:10.238Z,18.70
2023-03-11T08:53:37.891Z,19.60
2023-03-11T08:56:05.935Z,14.10
2023-03-11T08:58:33.115Z,13.70
2023-03-11T09:01:00.689Z,19.40
2023-03-11T09:03:29.603Z,15.90
2023-03-11T09:05:58.761Z,29.20
2023-03-11T09:08:26.607Z,14.30
2023-03-11T09:10:53.940Z,11.90
2023-03-11T09:13:21.168Z,8.10
2023-03-11T09:15:50.342Z,9.00
2023-03-11T09:18:18.138Z,7.80
2023-03-11T09:20:45.563Z,6.40
2023-03-11T09:23:16.705Z,11.20
2023-03-11T09:25:44.218Z,8.90
2023-03-11T09:28:11.328Z,10.70
2023-03-11T09:30:38.519Z,11.80
2023-03-11T09:33:06.318Z,9.40
2023-03-11T09:35:33.854Z,14.20
2023-03-11T09:38:01.532Z,14.70
2023-03-11T09:40:45.393Z,18.00
2023-03-11T09:43:36.486Z,12.10
2023-03-11T09:46:34.616Z,9.40
2023-03-11T09:49:40.552Z,11.00
2023-03-11T09:52:13.495Z,19.30
2023-03-11T09:54:48.421Z,10.40
2023-03-11T09:57:22.027Z,20.90
2023-03-11T09:59:50.218Z,9.60
2023-03-11T10:02:26.667Z,10.60
2023-03-11T10:05:01.416Z,7.90
2023-03-11T10:07:35.323Z,7.30
2023-03-11T10:10:02.550Z,8.60
2023-03-11T10:12:59.222Z,10.00
2023-03-11T10:15:40.225Z,8.90
2023-03-11T10:18:19.407Z,11.80
2023-03-11T10:20:53.669Z,8.80
2023-03-11T10:23:31.338Z,5.70
2023-03-11T10:26:04.278Z,8.40
2023-03-11T10:28:40.667Z,15.90
2023-03-11T10:31:19.082Z,48.30
2023-03-11T10:33:52.634Z,9.50
2023-03-11T10:36:26.650Z,10.20
2023-03-11T10:38:56.380Z,12.10
2023-03-11T10:41:27.838Z,9.70
2023-03-11T10:44:00.903Z,7.60
2023-03-11T10:46:29.229Z,10.10
2023-03-11T10:48:56.633Z,9.80
2023-03-11T10:51:33.663Z,16.60
2023-03-11T10:54:03.506Z,8.80
2023-03-11T10:56:32.472Z,11.50
2023-03-11T10:59:00.416Z,13.70
2023-03-11T11:01:31.969Z,13.30
2023-03-11T11:04:01.825Z,16.50
2023-03-11T11:06:30.586Z,30.60
2023-03-11T11:09:22.106Z,22.30
2023-03-11T11:12:03.591Z,12.90
2023-03-11T11:14:47.399Z,14.00
2023-03-11T11:17:27.224Z,8.70
2023-03-11T11:19:56.974Z,7.90
2023-03-11T11:22:25.632Z,9.40
2023-03-11T11:24:56.164Z,7.40
2023-03-11T11:27:29.565Z,17.00
2023-03-11T11:30:23.352Z,16.50
2023-03-11T11:32:53.889Z,18.80
2023-03-11T11:35:23.616Z,7.40
2023-03-11T11:37:59.863Z,9.80
2023-03-11T11:40:30.767Z,6.40
2023-03-11T11:43:05.334Z,8.30
2023-03-11T11:45:41.364Z,8.50
2023-03-11T11:48:24.320Z,9.10
2023-03-11T11:51:00.865Z,6.20
2023-03-11T11:53:46.421Z,7.00
2023-03-11T11:56:14.086Z,9.70
2023-03-11T11:58:41.651Z,21.70
2023-03-11T12:01:31.247Z,28.20
2023-03-11T12:04:04.397Z,20.70
2023-03-11T12:06:40.776Z,31.10
2023-03-11T12:09:27.229Z,22.50
2023-03-11T12:12:24.290Z,34.30
2023-03-11T12:15:02.663Z,10.20
2023-03-11T12:17:32.081Z,10.10
2023-03-11T12:20:17.716Z,9.40
2023-03-11T12:23:29.763Z,10.30
2023-03-11T12:26:18.342Z,14.10
2023-03-11T12:28:52.097Z,6.40
2023-03-11T12:31:21.179Z,19.30
2023-03-11T12:33:59.280Z,14.70
2023-03-11T12:36:31.317Z,9.50
2023-03-11T12:39:01.074Z,14.00
2023-03-11T12:41:29.792Z,18.40
2023-03-11T12:43:59.937Z,43.00
2023-03-11T12:46:58.362Z,41.90
2023-03-11T12:49:27.875Z,24.30
2023-03-11T12:52:03.039Z,12.60
2023-03-11T12:54:35.467Z,36.10
2023-03-11T12:57:20.872Z,32.70
2023-03-11T13:00:17.662Z,42.50
2023-03-11T13:02:47.831Z,18.50
2023-03-11T13:05:33.401Z,19.10
2023-03-11T13:08:16.323Z,17.80
2023-03-11T13:10:45.679Z,18.80
2023-03-11T13:13:31.460Z,26.30
2023-03-11T13:16:18.683Z,22.00
2023-03-11T13:18:48.903Z,8.60
2023-03-11T13:21:28.414Z,16.90
2023-03-11T13:24:18.692Z,15.90
2023-03-11T13:26:55.207Z,19.30
2023-03-11T13:29:47.864Z,21.30
2023-03-11T13:32:30.310Z,13.90
2023-03-11T13:35:40.784Z,13.20
2023-03-11T13:38:26.747Z,7.70
2023-03-11T13:40:54.009Z,9.30
2023-03-11T13:43:23.979Z,11.50
2023-03-11T13:45:56.850Z,18.60
2023-03-11T13:48:42.293Z,13.30
2023-03-11T13:51:35.555Z,18.00
2023-03-11T13:54:10.925Z,16.60
2023-03-11T13:56:45.202Z,13.80
2023-03-11T13:59:16.967Z,10.10
2023-03-11T14:01:59.274Z,12.10
2023-03-11T14:04:30.203Z,9.70
2023-03-11T14:06:57.802Z,6.10
2023-03-11T14:09:28.080Z,10.10
2023-03-11T14:12:03.528Z,8.20
2023-03-11T14:14:39.521Z,6.10
2023-03-11T14:17:15.274Z,5.30
2023-03-11T14:19:43.192Z,9.50
2023-03-11T14:22:11.121Z,5.60
2023-03-11T14:24:39.791Z,4.00
2023-03-11T14:27:10.454Z,4.40
2023-03-11T14:29:39.925Z,5.90
2023-03-11T14:32:25.742Z,5.50
2023-03-11T14:34:52.975Z,5.10
2023-03-11T14:37:35.929Z,23.80
2023-03-11T14:40:04.706Z,12.80
2023-03-11T14:42:39.514Z,7.40
2023-03-11T14:45:18.326Z,5.70
2023-03-11T14:47:59.411Z,4.30
2023-03-11T14:50:30.641Z,4.20
2023-03-11T14:53:07.795Z,3.30
2023-03-11T14:55:41.860Z,4.70
2023-03-11T14:58:11.922Z,5.20
2023-03-11T15:01:03.644Z,5.00
2023-03-11T15:03:35.680Z,4.00
2023-03-11T15:06:05.633Z,3.90
2023-03-11T15:08:48.530Z,4.90
2023-03-11T15:11:16.469Z,5.00
2023-03-11T15:13:47.563Z,3.40
2023-03-11T15:16:30.534Z,9.20
2023-03-11T15:19:01.564Z,3.80
2023-03-11T15:21:28.782Z,6.50
2023-03-11T15:24:05.714Z,4.40
2023-03-11T15:26:35.733Z,3.60
2023-03-11T15:29:13.299Z,3.50
2023-03-11T15:31:42.677Z,5.80
2023-03-11T15:34:18.914Z,5.90
2023-03-11T15:36:49.180Z,4.50
2023-03-11T15:39:17.929Z,3.80
2023-03-11T15:42:04.244Z,3.50
2023-03-11T15:44:41.757Z,3.00
2023-03-11T15:47:16.626Z,6.00
2023-03-11T15:49:44.021Z,4.30
2023-03-11T15:52:11.634Z,3.20
2023-03-11T15:54:39.387Z,9.30
2023-03-11T15:57:10.651Z,8.30
2023-03-11T15:59:41.311Z,10.40
2023-03-11T16:02:24.060Z,8.60
2023-03-11T16:04:52.013Z,4.60
2023-03-11T16:07:32.801Z,7.90
2023-03-11T16:10:06.466Z,3.50
2023-03-11T16:12:33.750Z,4.40
2023-03-11T16:15:01.205Z,4.80
2023-03-11T16:17:39.534Z,5.00
2023-03-11T16:20:14.351Z,5.70
2023-03-11T16:22:41.555Z,7.80
2023-03-11T16:25:19.560Z,5.50
2023-03-11T16:27:46.823Z,4.60
2023-03-11T16:30:16.312Z,5.50
2023-03-11T16:32:46.441Z,6.30
2023-03-11T16:35:13.642Z,4.90
2023-03-11T16:37:42.892Z,4.70
2023-03-11T16:40:28.457Z,4.50
2023-03-11T16:43:04.799Z,4.30
2023-03-11T16:45:32.529Z,3.30
2023-03-11T16:47:59.760Z,3.30
2023-03-11T16:50:27.628Z,4.70
2023-03-11T16:52:56.318Z,2.80
2023-03-11T16:55:25.294Z,3.30
2023-03-11T16:57:54.800Z,3.30
2023-03-11T17:00:22.322Z,2.80
2023-03-11T17:02:49.419Z,2.90
2023-03-11T17:05:16.951Z,3.30
2023-03-11T17:07:44.214Z,2.90
2023-03-11T17:10:12.185Z,3.20
2023-03-11T17:12:39.457Z,3.20
2023-03-11T17:15:07.277Z,3.60
2023-03-11T17:17:34.452Z,3.90
2023-03-11T17:20:01.616Z,3.80
2023-03-11T17:22:28.712Z,3.80
2023-03-11T17:24:55.929Z,3.90
2023-03-11T17:27:22.982Z,4.30
2023-03-11T17:29:50.439Z,4.90
2023-03-11T17:32:18.027Z,6.30
2023-03-11T17:34:45.227Z,7.00
2023-03-11T17:37:12.424Z,6.50
2023-03-11T17:39:39.520Z,6.00
2023-03-11T17:42:06.594Z,6.20
2023-03-11T17:44:50.134Z,6.50
2023-03-11T17:47:20.068Z,7.60
2023-03-11T17:49:48.493Z,16.40
2023-03-11T17:52:15.914Z,21.60
2023-03-11T17:54:43.092Z,16.90
2023-03-11T17:57:10.244Z,8.50
2023-03-11T17:59:37.635Z,6.50
2023-03-11T18:02:05.153Z,5.20
2023-03-11T18:04:32.197Z,5.50
2023-03-11T18:06:59.274Z,5.30
2023-03-11T18:09:26.789Z,7.10
2023-03-11T18:11:54.404Z,5.60
2023-03-11T18:14:21.653Z,5.20
2023-03-11T18:16:48.847Z,7.70
2023-03-11T18:19:18.187Z,6.20
2023-03-11T18:21:46.119Z,5.10
2023-03-11T18:24:13.339Z,6.00
2023-03-11T18:26:40.492Z,5.50
2023-03-11T18:29:07.615Z,5.50
2023-03-11T18:31:34.828Z,5.80
2023-03-11T18:34:03.988Z,5.30
2023-03-11T18:36:34.144Z,4.80
2023-03-11T18:39:02.202Z,6.20
2023-03-11T18:41:32.261Z,6.50
2023-03-11T18:43:59.592Z,15.20
2023-03-11T18:46:28.848Z,8.50
2023-03-11T18:49:00.264Z,43.60
2023-03-11T18:51:30.073Z,15.30
2023-03-11T18:53:57.942Z,9.30
2023-03-11T18:56:25.345Z,16.40
2023-03-11T18:58:52.677Z,11.60
2023-03-11T19:01:21.474Z,9.30
2023-03-11T19:03:51.228Z,12.50
2023-03-11T19:06:18.970Z,9.70
2023-03-11T19:08:46.143Z,9.60
2023-03-11T19:11:16.066Z,7.00
2023-03-11T19:13:47.805Z,7.40
2023-03-11T19:16:24.689Z,6.00
2023-03-11T19:18:53.978Z,10.80
2023-03-11T19:21:21.934Z,8.80
2023-03-11T19:23:51.835Z,6.60
2023-03-11T19:26:19.067Z,8.30
2023-03-11T19:28:46.221Z,9.40
2023-03-11T19:31:13.518Z,7.50
2023-03-11T19:33:40.811Z,10.30
2023-03-11T19:36:08.159Z,9.50
2023-03-11T19:38:35.517Z,8.00
2023-03-11T19:41:08.704Z,5.60
2023-03-11T19:43:36.408Z,5.10
2023-03-11T19:46:08.112Z,4.80
2023-03-11T19:48:35.359Z,28.10
2023-03-11T19:51:02.737Z,22.60
2023-03-11T19:53:29.963Z,10.90
2023-03-11T19:55:57.860Z,7.40
2023-03-11T19:58:30.256Z,6.50
2023-03-11T20:00:58.979Z,6.00
2023-03-11T20:03:26.460Z,6.10
2023-03-11T20:05:56.837Z,6.70
2023-03-11T20:08:25.703Z,6.00
2023-03-11T20:10:53.930Z,6.00
2023-03-11T20:13:22.421Z,5.80
2023-03-11T20:15:50.394Z,5.70
2023-03-11T20:18:18.209Z,5.60
2023-03-11T20:20:45.691Z,6.50
2023-03-11T20:23:13.241Z,5.10
2023-03-11T20:25:41.311Z,5.80
2023-03-11T20:28:09.122Z,5.40
2023-03-11T20:30:38.386Z,6.20
2023-03-11T20:33:06.869Z,6.50
2023-03-11T20:35:34.518Z,6.10
2023-03-11T20:38:03.159Z,6.80
2023-03-11T20:40:30.959Z,6.30
2023-03-11T20:42:58.524Z,5.60
2023-03-11T20:45:25.730Z,5.70
2023-03-11T20:47:54.152Z,120.10
2023-03-11T20:50:22.552Z,157.70
2023-03-11T20:52:51.011Z,168.20
2023-03-11T20:55:18.450Z,34.70
2023-03-11T20:57:45.740Z,42.00
2023-03-11T21:00:13.910Z,22.40
2023-03-11T21:02:43.224Z,14.80
2023-03-11T21:05:12.121Z,10.80
2023-03-11T21:07:40.348Z,11.30
2023-03-11T21:10:10.918Z,29.00
2023-03-11T21:12:38.287Z,36.60
2023-03-11T21:15:06.964Z,10.40
2023-03-11T21:17:34.906Z,13.50
2023-03-11T21:20:02.430Z,17.30
2023-03-11T21:22:29.768Z,9.40
2023-03-11T21:24:56.898Z,8.90
2023-03-11T21:27:27.206Z,10.60
2023-03-11T21:29:59.012Z,7.50
2023-03-11T21:32:28.698Z,7.30
2023-03-11T21:34:59.506Z,5.90
2023-03-11T21:37:28.583Z,6.60
2023-03-11T21:39:55.821Z,6.30
2023-03-11T21:42:23.496Z,6.00
2023-03-11T21:44:51.789Z,7.00
2023-03-11T21:47:19.784Z,7.10
2023-03-11T21:49:47.081Z,7.10
2023-03-11T21:52:14.437Z,9.70
2023-03-11T21:54:41.643Z,8.60
2023-03-11T21:57:08.808Z,8.90
2023-03-11T21:59:35.973Z,7.10
2023-03-11T22:02:03.453Z,6.90
2023-03-11T22:04:31.744Z,7.90
2023-03-11T22:06:59.257Z,5.80
2023-03-11T22:09:26.714Z,7.70
2023-03-11T22:11:54.255Z,8.30
2023-03-11T22:14:21.451Z,22.40
2023-03-11T22:16:48.815Z,14.80
2023-03-11T22:19:16.235Z,14.90
2023-03-11T22:21:43.544Z,15.30
2023-03-11T22:24:11.111Z,7.30
2023-03-11T22:26:38.260Z,6.80
2023-03-11T22:29:07.886Z,6.60
2023-03-11T22:31:36.200Z,5.30
2023-03-11T22:34:03.379Z,5.80
2023-03-11T22:36:30.611Z,5.70
2023-03-11T22:38:57.784Z,6.90
2023-03-11T22:41:24.956Z,6.60
2023-03-11T22:43:52.107Z,6.60
2023-03-11T22:46:19.242Z,6.20
2023-03-11T22:48:46.595Z,5.30
2023-03-11T22:51:13.618Z,6.10
2023-03-11T22:53:41.083Z,5.30
2023-03-11T22:56:10.900Z,6.60
2023-03-11T22:58:38.374Z,6.50
2023-03-11T23:01:05.921Z,7.30
2023-03-11T23:03:34.956Z,6.90
2023-03-11T23:06:05.068Z,6.80
2023-03-11T23:08:32.177Z,6.60
2023-03-11T23:11:03.268Z,5.90
2023-03-11T23:13:31.950Z,6.90
2023-03-11T23:16:07.867Z,5.60
2023-03-11T23:18:35.651Z,7.30
2023-03-11T23:21:03.638Z,7.60
2023-03-11T23:23:30.744Z,8.10
2023-03-11T23:25:57.842Z,10.10
2023-03-11T23:28:24.956Z,15.90
2023-03-11T23:30:52.229Z,14.00
2023-03-11T23:33:19.369Z,15.00
2023-03-11T23:35:46.460Z,32.70
2023-03-11T23:38:13.588Z,24.30
2023-03-11T23:40:41.665Z,37.20
2023-03-11T23:43:08.862Z,14.80
2023-03-11T23:45:35.995Z,23.30
2023-03-11T23:48:03.001Z,17.00
2023-03-11T23:50:30.162Z,11.10
2023-03-11T23:52:57.284Z,22.60
2023-03-11T23:55:24.540Z,48.00
2023-03-11T23:57:51.614Z,29.70
